sensor_id;sensor_type;location;lat;lon;timestamp;temperature;humidity
22966;DHT22;11649;48.090;9.754;2024-03-06T00:00:12;6.60;99.90
22966;DHT22;11649;48.090;9.754;2024-03-06T00:02:39;6.60;99.90
22966;DHT22;11649;48.090;9.754;2024-03-06T00:05:06;6.60;99.90
22966;DHT22;11649;48.090;9.754;2024-03-06T00:07:35;6.70;99.90
22966;DHT22;11649;48.090;9.754;2024-03-06T00:10:09;6.70;99.90
22966;DHT22;11649;48.090;9.754;2024-03-06T00:12:35;6.50;99.90
22966;DHT22;11649;48.090;9.754;2024-03-06T00:15:02;6.60;99.90
22966;DHT22;11649;48.090;9.754;2024-03-06T00:17:30;6.70;99.90
22966;DHT22;11649;48.090;9.754;2024-03-06T00:19:56;6.70;99.90
22966;DHT22;11649;48.090;9.754;2024-03-06T00:22:23;6.70;99.90
22966;DHT22;11649;48.090;9.754;2024-03-06T00:24:51;6.70;99.90
22966;DHT22;11649;48.090;9.754;2024-03-06T00:27:18;6.60;99.90
22966;DHT22;11649;48.090;9.754;2024-03-06T00:29:45;6.60;99.90
22966;DHT22;11649;48.090;9.754;2024-03-06T00:32:12;6.60;99.90
22966;DHT22;11649;48.090;9.754;2024-03-06T00:34:39;6.70;99.90
22966;DHT22;11649;48.090;9.754;2024-03-06T00:37:06;6.70;99.90
22966;DHT22;11649;48.090;9.754;2024-03-06T00:39:33;6.80;99.90
22966;DHT22;11649;48.090;9.754;2024-03-06T00:42:00;6.70;99.90
22966;DHT22;11649;48.090;9.754;2024-03-06T00:44:26;6.60;99.90
22966;DHT22;11649;48.090;9.754;2024-03-06T00:46:53;6.60;99.90
22966;DHT22;11649;48.090;9.754;2024-03-06T00:49:20;6.70;99.90
22966;DHT22;11649;48.090;9.754;2024-03-06T00:51:47;6.50;99.90
22966;DHT22;11649;48.090;9.754;2024-03-06T00:54:15;6.40;99.90
22966;DHT22;11649;48.090;9.754;2024-03-06T00:56:43;6.40;99.90
22966;DHT22;11649;48.090;9.754;2024-03-06T00:59:10;6.40;99.90
22966;DHT22;11649;48.090;9.754;2024-03-06T01:01:37;6.30;99.90
22966;DHT22;11649;48.090;9.754;2024-03-06T01:04:04;6.30;99.90
22966;DHT22;11649;48.090;9.754;2024-03-06T01:06:31;6.20;99.90
22966;DHT22;11649;48.090;9.754;2024-03-06T01:09:06;6.30;99.90
22966;DHT22;11649;48.090;9.754;2024-03-06T01:11:32;6.20;99.90
22966;DHT22;11649;48.090;9.754;2024-03-06T01:13:59;6.20;99.90
22966;DHT22;11649;48.090;9.754;2024-03-06T01:16:26;6.20;99.90
22966;DHT22;11649;48.090;9.754;2024-03-06T01:18:53;6.30;99.90
22966;DHT22;11649;48.090;9.754;2024-03-06T01:21:20;6.30;99.90
22966;DHT22;11649;48.090;9.754;2024-03-06T01:23:47;6.40;99.90
22966;DHT22;11649;48.090;9.754;2024-03-06T01:26:14;6.40;99.90
22966;DHT22;11649;48.090;9.754;2024-03-06T01:28:41;6.30;99.90
22966;DHT22;11649;48.090;9.754;2024-03-06T01:31:08;6.20;99.90
22966;DHT22;11649;48.090;9.754;2024-03-06T01:33:35;6.20;99.90
22966;DHT22;11649;48.090;9.754;2024-03-06T01:36:01;6.20;99.90
22966;DHT22;11649;48.090;9.754;2024-03-06T01:38:28;6.20;99.90
22966;DHT22;11649;48.090;9.754;2024-03-06T01:40:55;6.30;99.90
22966;DHT22;11649;48.090;9.754;2024-03-06T01:43:26;6.20;99.90
22966;DHT22;11649;48.090;9.754;2024-03-06T01:45:53;6.20;99.90
22966;DHT22;11649;48.090;9.754;2024-03-06T01:48:23;6.20;99.90
22966;DHT22;11649;48.090;9.754;2024-03-06T01:50:49;6.20;99.90
22966;DHT22;11649;48.090;9.754;2024-03-06T01:53:16;6.20;99.90
22966;DHT22;11649;48.090;9.754;2024-03-06T01:55:45;6.30;99.90
22966;DHT22;11649;48.090;9.754;2024-03-06T01:58:12;6.30;99.90
22966;DHT22;11649;48.090;9.754;2024-03-06T02:00:40;6.30;99.90
22966;DHT22;11649;48.090;9.754;2024-03-06T02:03:06;6.20;99.90
22966;DHT22;11649;48.090;9.754;2024-03-06T02:05:34;6.20;99.90
22966;DHT22;11649;48.090;9.754;2024-03-06T02:08:01;6.20;99.90
22966;DHT22;11649;48.090;9.754;2024-03-06T02:10:30;6.30;99.90
22966;DHT22;11649;48.090;9.754;2024-03-06T02:12:57;6.70;99.90
22966;DHT22;11649;48.090;9.754;2024-03-06T02:15:24;6.30;99.90
22966;DHT22;11649;48.090;9.754;2024-03-06T02:17:51;6.30;99.90
22966;DHT22;11649;48.090;9.754;2024-03-06T02:20:24;6.30;99.90
22966;DHT22;11649;48.090;9.754;2024-03-06T02:22:51;6.40;99.90
22966;DHT22;11649;48.090;9.754;2024-03-06T02:25:19;6.40;99.90
22966;DHT22;11649;48.090;9.754;2024-03-06T02:27:46;6.40;99.90
22966;DHT22;11649;48.090;9.754;2024-03-06T02:30:18;6.40;99.90
22966;DHT22;11649;48.090;9.754;2024-03-06T02:32:45;6.40;99.90
22966;DHT22;11649;48.090;9.754;2024-03-06T02:35:12;6.50;99.90
22966;DHT22;11649;48.090;9.754;2024-03-06T02:37:43;6.50;99.90
22966;DHT22;11649;48.090;9.754;2024-03-06T02:40:13;6.60;99.90
22966;DHT22;11649;48.090;9.754;2024-03-06T02:42:40;6.60;99.90
22966;DHT22;11649;48.090;9.754;2024-03-06T02:45:07;6.60;99.90
22966;DHT22;11649;48.090;9.754;2024-03-06T02:47:35;6.60;99.90
22966;DHT22;11649;48.090;9.754;2024-03-06T02:50:02;6.50;99.90
22966;DHT22;11649;48.090;9.754;2024-03-06T02:52:29;6.40;99.90
22966;DHT22;11649;48.090;9.754;2024-03-06T02:54:56;6.30;99.90
22966;DHT22;11649;48.090;9.754;2024-03-06T02:57:26;6.30;99.90
22966;DHT22;11649;48.090;9.754;2024-03-06T02:59:53;6.40;99.90
22966;DHT22;11649;48.090;9.754;2024-03-06T03:02:19;6.40;99.90
22966;DHT22;11649;48.090;9.754;2024-03-06T03:04:46;6.50;99.90
22966;DHT22;11649;48.090;9.754;2024-03-06T03:07:13;6.60;99.90
22966;DHT22;11649;48.090;9.754;2024-03-06T03:09:40;6.60;99.90
22966;DHT22;11649;48.090;9.754;2024-03-06T03:12:07;6.70;99.90
22966;DHT22;11649;48.090;9.754;2024-03-06T03:14:33;6.70;99.90
22966;DHT22;11649;48.090;9.754;2024-03-06T03:17:00;6.60;99.90
22966;DHT22;11649;48.090;9.754;2024-03-06T03:19:36;6.70;99.90
22966;DHT22;11649;48.090;9.754;2024-03-06T03:22:03;6.70;99.90
22966;DHT22;11649;48.090;9.754;2024-03-06T03:24:31;6.60;99.90
22966;DHT22;11649;48.090;9.754;2024-03-06T03:26:57;6.60;99.90
22966;DHT22;11649;48.090;9.754;2024-03-06T03:29:24;6.60;99.90
22966;DHT22;11649;48.090;9.754;2024-03-06T03:31:51;6.50;99.90
22966;DHT22;11649;48.090;9.754;2024-03-06T03:34:18;6.50;99.90
22966;DHT22;11649;48.090;9.754;2024-03-06T03:36:44;6.50;99.90
22966;DHT22;11649;48.090;9.754;2024-03-06T03:39:12;7.50;99.90
22966;DHT22;11649;48.090;9.754;2024-03-06T03:41:46;6.60;99.90
22966;DHT22;11649;48.090;9.754;2024-03-06T03:44:14;6.60;99.90
22966;DHT22;11649;48.090;9.754;2024-03-06T03:46:42;6.60;99.90
22966;DHT22;11649;48.090;9.754;2024-03-06T03:49:09;6.60;99.90
22966;DHT22;11649;48.090;9.754;2024-03-06T03:51:38;6.50;99.90
22966;DHT22;11649;48.090;9.754;2024-03-06T03:54:06;6.60;99.90
22966;DHT22;11649;48.090;9.754;2024-03-06T03:56:33;6.50;99.90
22966;DHT22;11649;48.090;9.754;2024-03-06T03:59:00;6.50;99.90
22966;DHT22;11649;48.090;9.754;2024-03-06T04:01:27;6.50;99.90
22966;DHT22;11649;48.090;9.754;2024-03-06T04:03:54;6.40;99.90
22966;DHT22;11649;48.090;9.754;2024-03-06T04:06:21;6.30;99.90
22966;DHT22;11649;48.090;9.754;2024-03-06T04:08:48;6.30;99.90
22966;DHT22;11649;48.090;9.754;2024-03-06T04:11:15;6.40;99.90
22966;DHT22;11649;48.090;9.754;2024-03-06T04:13:42;6.30;99.90
22966;DHT22;11649;48.090;9.754;2024-03-06T04:16:09;6.20;99.90
22966;DHT22;11649;48.090;9.754;2024-03-06T04:18:36;6.20;99.90
22966;DHT22;11649;48.090;9.754;2024-03-06T04:21:07;6.30;99.90
22966;DHT22;11649;48.090;9.754;2024-03-06T04:23:36;6.30;99.90
22966;DHT22;11649;48.090;9.754;2024-03-06T04:26:03;6.40;99.90
22966;DHT22;11649;48.090;9.754;2024-03-06T04:28:33;6.40;99.90
22966;DHT22;11649;48.090;9.754;2024-03-06T04:30:59;6.50;99.90
22966;DHT22;11649;48.090;9.754;2024-03-06T04:33:26;6.50;99.90
22966;DHT22;11649;48.090;9.754;2024-03-06T04:35:53;6.40;99.90
22966;DHT22;11649;48.090;9.754;2024-03-06T04:38:20;6.30;99.90
22966;DHT22;11649;48.090;9.754;2024-03-06T04:40:47;6.20;99.90
22966;DHT22;11649;48.090;9.754;2024-03-06T04:43:14;6.30;99.90
22966;DHT22;11649;48.090;9.754;2024-03-06T04:45:41;6.20;99.90
22966;DHT22;11649;48.090;9.754;2024-03-06T04:48:08;6.30;99.90
22966;DHT22;11649;48.090;9.754;2024-03-06T04:50:35;6.30;99.90
22966;DHT22;11649;48.090;9.754;2024-03-06T04:53:02;6.40;99.90
22966;DHT22;11649;48.090;9.754;2024-03-06T04:55:28;6.50;99.90
22966;DHT22;11649;48.090;9.754;2024-03-06T04:57:57;6.50;99.90
22966;DHT22;11649;48.090;9.754;2024-03-06T05:00:24;6.50;99.90
22966;DHT22;11649;48.090;9.754;2024-03-06T05:02:51;6.50;99.90
22966;DHT22;11649;48.090;9.754;2024-03-06T05:05:35;6.50;99.90
22966;DHT22;11649;48.090;9.754;2024-03-06T05:08:20;6.60;99.90
22966;DHT22;11649;48.090;9.754;2024-03-06T05:11:04;6.60;99.90
22966;DHT22;11649;48.090;9.754;2024-03-06T05:13:48;6.50;99.90
22966;DHT22;11649;48.090;9.754;2024-03-06T05:16:34;6.40;99.90
22966;DHT22;11649;48.090;9.754;2024-03-06T05:19:18;6.40;99.90
22966;DHT22;11649;48.090;9.754;2024-03-06T05:22:03;6.40;99.90
22966;DHT22;11649;48.090;9.754;2024-03-06T05:24:49;6.40;99.90
22966;DHT22;11649;48.090;9.754;2024-03-06T05:27:33;6.40;99.90
22966;DHT22;11649;48.090;9.754;2024-03-06T05:30:17;6.40;99.90
22966;DHT22;11649;48.090;9.754;2024-03-06T05:33:01;6.30;99.90
22966;DHT22;11649;48.090;9.754;2024-03-06T05:35:45;6.10;99.90
22966;DHT22;11649;48.090;9.754;2024-03-06T05:38:29;6.10;99.90
22966;DHT22;11649;48.090;9.754;2024-03-06T05:41:14;6.00;99.90
22966;DHT22;11649;48.090;9.754;2024-03-06T05:43:59;6.10;99.90
22966;DHT22;11649;48.090;9.754;2024-03-06T05:46:43;6.10;99.90
22966;DHT22;11649;48.090;9.754;2024-03-06T05:49:28;6.10;99.90
22966;DHT22;11649;48.090;9.754;2024-03-06T05:52:12;6.10;99.90
22966;DHT22;11649;48.090;9.754;2024-03-06T05:54:56;6.20;99.90
22966;DHT22;11649;48.090;9.754;2024-03-06T05:57:41;6.20;99.90
22966;DHT22;11649;48.090;9.754;2024-03-06T06:00:29;6.20;99.90
22966;DHT22;11649;48.090;9.754;2024-03-06T06:02:56;6.30;99.90
22966;DHT22;11649;48.090;9.754;2024-03-06T06:05:23;6.30;99.90
22966;DHT22;11649;48.090;9.754;2024-03-06T06:07:51;6.30;99.90
22966;DHT22;11649;48.090;9.754;2024-03-06T06:10:18;6.20;99.90
22966;DHT22;11649;48.090;9.754;2024-03-06T06:12:48;6.30;99.90
22966;DHT22;11649;48.090;9.754;2024-03-06T06:15:15;6.20;99.90
22966;DHT22;11649;48.090;9.754;2024-03-06T06:17:42;6.20;99.90
22966;DHT22;11649;48.090;9.754;2024-03-06T06:20:12;6.20;99.90
22966;DHT22;11649;48.090;9.754;2024-03-06T06:22:43;6.20;99.90
22966;DHT22;11649;48.090;9.754;2024-03-06T06:25:10;6.10;99.90
22966;DHT22;11649;48.090;9.754;2024-03-06T06:27:37;6.10;99.90
22966;DHT22;11649;48.090;9.754;2024-03-06T06:30:06;6.10;99.90
22966;DHT22;11649;48.090;9.754;2024-03-06T06:32:33;6.20;99.90
22966;DHT22;11649;48.090;9.754;2024-03-06T06:35:01;6.20;99.90
22966;DHT22;11649;48.090;9.754;2024-03-06T06:37:28;6.20;99.90
22966;DHT22;11649;48.090;9.754;2024-03-06T06:39:55;6.20;99.90
22966;DHT22;11649;48.090;9.754;2024-03-06T06:42:21;6.20;99.90
22966;DHT22;11649;48.090;9.754;2024-03-06T06:44:48;6.20;99.90
22966;DHT22;11649;48.090;9.754;2024-03-06T06:47:15;6.20;99.90
22966;DHT22;11649;48.090;9.754;2024-03-06T06:49:42;6.10;99.90
22966;DHT22;11649;48.090;9.754;2024-03-06T06:52:09;6.00;99.90
22966;DHT22;11649;48.090;9.754;2024-03-06T06:54:36;6.00;99.90
22966;DHT22;11649;48.090;9.754;2024-03-06T06:57:03;6.00;99.90
22966;DHT22;11649;48.090;9.754;2024-03-06T06:59:30;6.10;99.90
22966;DHT22;11649;48.090;9.754;2024-03-06T07:01:57;6.10;99.90
22966;DHT22;11649;48.090;9.754;2024-03-06T07:04:24;6.10;99.90
22966;DHT22;11649;48.090;9.754;2024-03-06T07:06:51;6.10;99.90
22966;DHT22;11649;48.090;9.754;2024-03-06T07:09:19;6.20;99.90
22966;DHT22;11649;48.090;9.754;2024-03-06T07:11:46;6.20;99.90
22966;DHT22;11649;48.090;9.754;2024-03-06T07:14:13;6.20;99.90
22966;DHT22;11649;48.090;9.754;2024-03-06T07:16:44;6.10;99.90
22966;DHT22;11649;48.090;9.754;2024-03-06T07:19:11;6.00;99.90
22966;DHT22;11649;48.090;9.754;2024-03-06T07:21:39;6.10;99.90
22966;DHT22;11649;48.090;9.754;2024-03-06T07:24:06;6.00;99.90
22966;DHT22;11649;48.090;9.754;2024-03-06T07:26:34;5.90;99.90
22966;DHT22;11649;48.090;9.754;2024-03-06T07:29:01;5.90;99.90
22966;DHT22;11649;48.090;9.754;2024-03-06T07:31:28;5.90;99.90
22966;DHT22;11649;48.090;9.754;2024-03-06T07:33:55;8.20;99.90
22966;DHT22;11649;48.090;9.754;2024-03-06T07:36:22;6.10;99.90
22966;DHT22;11649;48.090;9.754;2024-03-06T07:38:49;6.00;99.90
22966;DHT22;11649;48.090;9.754;2024-03-06T07:41:16;6.20;99.90
22966;DHT22;11649;48.090;9.754;2024-03-06T07:43:43;6.10;99.90
22966;DHT22;11649;48.090;9.754;2024-03-06T07:46:10;6.10;99.90
22966;DHT22;11649;48.090;9.754;2024-03-06T07:48:38;6.30;99.90
22966;DHT22;11649;48.090;9.754;2024-03-06T07:51:05;6.40;99.90
22966;DHT22;11649;48.090;9.754;2024-03-06T07:53:33;6.40;99.90
22966;DHT22;11649;48.090;9.754;2024-03-06T07:56:01;6.40;99.90
22966;DHT22;11649;48.090;9.754;2024-03-06T07:58:28;6.40;99.90
22966;DHT22;11649;48.090;9.754;2024-03-06T08:00:55;6.50;99.90
22966;DHT22;11649;48.090;9.754;2024-03-06T08:03:28;6.40;99.90
22966;DHT22;11649;48.090;9.754;2024-03-06T08:05:56;6.50;99.90
22966;DHT22;11649;48.090;9.754;2024-03-06T08:08:22;6.50;99.90
22966;DHT22;11649;48.090;9.754;2024-03-06T08:10:50;6.50;99.90
22966;DHT22;11649;48.090;9.754;2024-03-06T08:13:17;6.40;99.90
22966;DHT22;11649;48.090;9.754;2024-03-06T08:15:46;6.30;99.90
22966;DHT22;11649;48.090;9.754;2024-03-06T08:18:13;6.40;99.90
22966;DHT22;11649;48.090;9.754;2024-03-06T08:20:41;6.30;99.90
22966;DHT22;11649;48.090;9.754;2024-03-06T08:23:09;6.10;99.90
22966;DHT22;11649;48.090;9.754;2024-03-06T08:25:39;6.20;99.90
22966;DHT22;11649;48.090;9.754;2024-03-06T08:28:06;6.10;99.90
22966;DHT22;11649;48.090;9.754;2024-03-06T08:30:33;6.10;99.90
22966;DHT22;11649;48.090;9.754;2024-03-06T08:33:00;6.20;99.90
22966;DHT22;11649;48.090;9.754;2024-03-06T08:35:27;6.00;99.90
22966;DHT22;11649;48.090;9.754;2024-03-06T08:37:54;6.00;99.90
22966;DHT22;11649;48.090;9.754;2024-03-06T08:40:21;5.90;99.90
22966;DHT22;11649;48.090;9.754;2024-03-06T08:42:50;6.10;99.90
22966;DHT22;11649;48.090;9.754;2024-03-06T08:45:17;6.20;99.90
22966;DHT22;11649;48.090;9.754;2024-03-06T08:47:45;6.40;99.90
22966;DHT22;11649;48.090;9.754;2024-03-06T08:50:12;6.30;99.90
22966;DHT22;11649;48.090;9.754;2024-03-06T08:52:40;6.30;99.90
22966;DHT22;11649;48.090;9.754;2024-03-06T08:55:08;6.30;99.90
22966;DHT22;11649;48.090;9.754;2024-03-06T08:57:36;6.30;99.90
22966;DHT22;11649;48.090;9.754;2024-03-06T09:00:03;6.30;99.90
22966;DHT22;11649;48.090;9.754;2024-03-06T09:02:31;6.40;99.90
22966;DHT22;11649;48.090;9.754;2024-03-06T09:04:57;6.40;99.90
22966;DHT22;11649;48.090;9.754;2024-03-06T09:07:24;6.40;99.90
22966;DHT22;11649;48.090;9.754;2024-03-06T09:09:51;6.40;99.90
22966;DHT22;11649;48.090;9.754;2024-03-06T09:12:18;6.40;99.90
22966;DHT22;11649;48.090;9.754;2024-03-06T09:14:45;6.30;99.90
22966;DHT22;11649;48.090;9.754;2024-03-06T09:17:12;6.30;99.90
22966;DHT22;11649;48.090;9.754;2024-03-06T09:19:42;6.40;99.90
22966;DHT22;11649;48.090;9.754;2024-03-06T09:22:12;6.40;99.90
22966;DHT22;11649;48.090;9.754;2024-03-06T09:24:39;6.20;99.90
22966;DHT22;11649;48.090;9.754;2024-03-06T09:27:05;6.20;99.90
22966;DHT22;11649;48.090;9.754;2024-03-06T09:29:49;6.20;99.90
22966;DHT22;11649;48.090;9.754;2024-03-06T09:32:15;6.40;99.90
22966;DHT22;11649;48.090;9.754;2024-03-06T09:34:45;6.40;99.90
22966;DHT22;11649;48.090;9.754;2024-03-06T09:37:12;6.40;99.90
22966;DHT22;11649;48.090;9.754;2024-03-06T09:39:39;6.40;99.90
22966;DHT22;11649;48.090;9.754;2024-03-06T09:42:06;6.40;99.90
22966;DHT22;11649;48.090;9.754;2024-03-06T09:44:34;6.40;99.90
22966;DHT22;11649;48.090;9.754;2024-03-06T09:47:02;6.40;99.90
22966;DHT22;11649;48.090;9.754;2024-03-06T09:49:33;6.50;99.90
22966;DHT22;11649;48.090;9.754;2024-03-06T09:52:02;6.50;99.90
22966;DHT22;11649;48.090;9.754;2024-03-06T09:54:30;6.50;99.90
22966;DHT22;11649;48.090;9.754;2024-03-06T09:56:57;6.50;99.90
22966;DHT22;11649;48.090;9.754;2024-03-06T09:59:25;6.50;99.90
22966;DHT22;11649;48.090;9.754;2024-03-06T10:01:56;6.40;99.90
22966;DHT22;11649;48.090;9.754;2024-03-06T10:04:25;6.40;99.90
22966;DHT22;11649;48.090;9.754;2024-03-06T10:06:58;6.20;99.90
22966;DHT22;11649;48.090;9.754;2024-03-06T10:09:27;6.30;99.90
22966;DHT22;11649;48.090;9.754;2024-03-06T10:11:53;6.30;99.90
22966;DHT22;11649;48.090;9.754;2024-03-06T10:14:32;6.40;99.90
22966;DHT22;11649;48.090;9.754;2024-03-06T10:17:00;6.40;99.90
22966;DHT22;11649;48.090;9.754;2024-03-06T10:19:29;6.50;99.90
22966;DHT22;11649;48.090;9.754;2024-03-06T10:21:56;6.50;99.90
22966;DHT22;11649;48.090;9.754;2024-03-06T10:24:28;6.40;99.90
22966;DHT22;11649;48.090;9.754;2024-03-06T10:26:56;6.30;99.90
22966;DHT22;11649;48.090;9.754;2024-03-06T10:29:26;6.30;99.90
22966;DHT22;11649;48.090;9.754;2024-03-06T10:31:55;6.40;99.90
22966;DHT22;11649;48.090;9.754;2024-03-06T10:34:28;6.40;99.90
22966;DHT22;11649;48.090;9.754;2024-03-06T10:36:57;6.50;99.90
22966;DHT22;11649;48.090;9.754;2024-03-06T10:39:24;6.50;99.90
22966;DHT22;11649;48.090;9.754;2024-03-06T10:41:57;6.50;99.90
22966;DHT22;11649;48.090;9.754;2024-03-06T10:44:26;6.60;99.90
22966;DHT22;11649;48.090;9.754;2024-03-06T10:47:01;6.60;99.90
22966;DHT22;11649;48.090;9.754;2024-03-06T10:49:29;6.60;99.90
22966;DHT22;11649;48.090;9.754;2024-03-06T10:52:01;6.60;99.90
22966;DHT22;11649;48.090;9.754;2024-03-06T10:54:29;6.60;99.90
22966;DHT22;11649;48.090;9.754;2024-03-06T10:56:57;6.70;99.90
22966;DHT22;11649;48.090;9.754;2024-03-06T10:59:29;6.70;99.90
22966;DHT22;11649;48.090;9.754;2024-03-06T11:01:57;6.60;99.90
22966;DHT22;11649;48.090;9.754;2024-03-06T11:04:25;6.60;99.90
22966;DHT22;11649;48.090;9.754;2024-03-06T11:06:56;6.60;99.90
22966;DHT22;11649;48.090;9.754;2024-03-06T11:09:23;6.70;99.90
22966;DHT22;11649;48.090;9.754;2024-03-06T11:11:51;6.70;99.90
22966;DHT22;11649;48.090;9.754;2024-03-06T11:14:21;6.70;99.90
22966;DHT22;11649;48.090;9.754;2024-03-06T11:17:08;6.70;99.90
22966;DHT22;11649;48.090;9.754;2024-03-06T11:28:21;6.90;99.90
22966;DHT22;11649;48.090;9.754;2024-03-06T11:31:02;7.00;99.90
22966;DHT22;11649;48.090;9.754;2024-03-06T11:33:46;7.00;99.90
22966;DHT22;11649;48.090;9.754;2024-03-06T11:36:25;7.00;99.90
22966;DHT22;11649;48.090;9.754;2024-03-06T11:39:05;7.10;99.90
22966;DHT22;11649;48.090;9.754;2024-03-06T11:41:46;7.20;99.90
22966;DHT22;11649;48.090;9.754;2024-03-06T11:44:21;7.30;99.90
22966;DHT22;11649;48.090;9.754;2024-03-06T11:49:26;7.40;99.90
22966;DHT22;11649;48.090;9.754;2024-03-06T11:51:56;7.40;99.90
22966;DHT22;11649;48.090;9.754;2024-03-06T11:54:24;7.40;99.90
22966;DHT22;11649;48.090;9.754;2024-03-06T11:56:55;7.40;99.90
22966;DHT22;11649;48.090;9.754;2024-03-06T11:59:27;7.40;99.90
22966;DHT22;11649;48.090;9.754;2024-03-06T12:02:02;7.40;99.90
22966;DHT22;11649;48.090;9.754;2024-03-06T12:04:34;7.40;99.90
22966;DHT22;11649;48.090;9.754;2024-03-06T12:07:04;7.40;99.90
22966;DHT22;11649;48.090;9.754;2024-03-06T12:09:36;7.30;99.90
22966;DHT22;11649;48.090;9.754;2024-03-06T12:12:08;7.30;99.90
22966;DHT22;11649;48.090;9.754;2024-03-06T12:14:36;7.40;99.90
22966;DHT22;11649;48.090;9.754;2024-03-06T12:17:10;7.40;99.90
22966;DHT22;11649;48.090;9.754;2024-03-06T12:19:37;7.30;99.90
22966;DHT22;11649;48.090;9.754;2024-03-06T12:22:05;7.20;99.90
22966;DHT22;11649;48.090;9.754;2024-03-06T12:24:31;7.10;99.90
22966;DHT22;11649;48.090;9.754;2024-03-06T12:27:01;7.10;99.90
22966;DHT22;11649;48.090;9.754;2024-03-06T12:29:29;7.20;99.90
22966;DHT22;11649;48.090;9.754;2024-03-06T12:32:03;7.30;99.90
22966;DHT22;11649;48.090;9.754;2024-03-06T12:34:33;7.30;99.90
22966;DHT22;11649;48.090;9.754;2024-03-06T12:37:18;7.10;99.90
22966;DHT22;11649;48.090;9.754;2024-03-06T12:39:45;7.00;99.90
22966;DHT22;11649;48.090;9.754;2024-03-06T12:42:11;7.10;99.90
22966;DHT22;11649;48.090;9.754;2024-03-06T12:44:39;7.20;99.90
22966;DHT22;11649;48.090;9.754;2024-03-06T12:47:07;7.30;99.90
22966;DHT22;11649;48.090;9.754;2024-03-06T12:49:34;7.30;99.90
22966;DHT22;11649;48.090;9.754;2024-03-06T12:52:01;7.10;99.90
22966;DHT22;11649;48.090;9.754;2024-03-06T12:54:31;7.00;99.90
22966;DHT22;11649;48.090;9.754;2024-03-06T12:56:58;7.00;99.90
22966;DHT22;11649;48.090;9.754;2024-03-06T12:59:25;6.90;99.90
22966;DHT22;11649;48.090;9.754;2024-03-06T13:01:52;7.00;99.90
22966;DHT22;11649;48.090;9.754;2024-03-06T13:04:29;7.20;99.90
22966;DHT22;11649;48.090;9.754;2024-03-06T13:06:56;7.30;99.90
22966;DHT22;11649;48.090;9.754;2024-03-06T13:09:23;7.50;99.90
22966;DHT22;11649;48.090;9.754;2024-03-06T13:11:51;7.60;99.90
22966;DHT22;11649;48.090;9.754;2024-03-06T13:14:18;7.60;99.90
22966;DHT22;11649;48.090;9.754;2024-03-06T13:16:45;7.70;99.90
22966;DHT22;11649;48.090;9.754;2024-03-06T13:19:12;7.70;99.90
22966;DHT22;11649;48.090;9.754;2024-03-06T13:21:39;7.70;99.90
22966;DHT22;11649;48.090;9.754;2024-03-06T13:24:06;7.60;99.90
22966;DHT22;11649;48.090;9.754;2024-03-06T13:26:32;7.60;99.90
22966;DHT22;11649;48.090;9.754;2024-03-06T13:28:59;7.70;99.90
22966;DHT22;11649;48.090;9.754;2024-03-06T13:31:27;7.70;99.90
22966;DHT22;11649;48.090;9.754;2024-03-06T13:33:53;7.70;99.90
22966;DHT22;11649;48.090;9.754;2024-03-06T13:36:20;7.70;99.90
22966;DHT22;11649;48.090;9.754;2024-03-06T13:38:51;7.70;99.90
22966;DHT22;11649;48.090;9.754;2024-03-06T13:41:18;7.70;99.90
22966;DHT22;11649;48.090;9.754;2024-03-06T13:43:45;7.60;99.90
22966;DHT22;11649;48.090;9.754;2024-03-06T13:46:12;7.50;99.90
22966;DHT22;11649;48.090;9.754;2024-03-06T13:48:39;7.40;99.90
22966;DHT22;11649;48.090;9.754;2024-03-06T13:51:05;7.50;99.90
22966;DHT22;11649;48.090;9.754;2024-03-06T13:53:33;7.50;99.90
22966;DHT22;11649;48.090;9.754;2024-03-06T13:55:59;7.40;99.90
22966;DHT22;11649;48.090;9.754;2024-03-06T13:58:26;7.40;99.90
22966;DHT22;11649;48.090;9.754;2024-03-06T14:00:53;7.50;99.90
22966;DHT22;11649;48.090;9.754;2024-03-06T14:03:20;7.60;99.90
22966;DHT22;11649;48.090;9.754;2024-03-06T14:05:48;7.60;99.90
22966;DHT22;11649;48.090;9.754;2024-03-06T14:08:15;7.50;99.90
22966;DHT22;11649;48.090;9.754;2024-03-06T14:10:43;7.70;99.90
22966;DHT22;11649;48.090;9.754;2024-03-06T14:13:12;7.50;99.90
22966;DHT22;11649;48.090;9.754;2024-03-06T14:15:39;7.30;99.90
22966;DHT22;11649;48.090;9.754;2024-03-06T14:18:06;7.20;99.90
22966;DHT22;11649;48.090;9.754;2024-03-06T14:20:33;7.10;99.90
22966;DHT22;11649;48.090;9.754;2024-03-06T14:23:00;7.10;99.90
22966;DHT22;11649;48.090;9.754;2024-03-06T14:25:27;7.20;99.90
22966;DHT22;11649;48.090;9.754;2024-03-06T14:27:54;7.20;99.90
22966;DHT22;11649;48.090;9.754;2024-03-06T14:30:20;7.10;99.90
22966;DHT22;11649;48.090;9.754;2024-03-06T14:32:48;7.00;99.90
22966;DHT22;11649;48.090;9.754;2024-03-06T14:35:15;6.90;99.90
22966;DHT22;11649;48.090;9.754;2024-03-06T14:37:41;7.00;99.90
22966;DHT22;11649;48.090;9.754;2024-03-06T14:40:09;7.10;99.90
22966;DHT22;11649;48.090;9.754;2024-03-06T14:42:36;7.10;99.90
22966;DHT22;11649;48.090;9.754;2024-03-06T14:45:03;7.10;99.90
22966;DHT22;11649;48.090;9.754;2024-03-06T14:47:32;7.10;99.90
22966;DHT22;11649;48.090;9.754;2024-03-06T14:49:59;7.00;99.90
22966;DHT22;11649;48.090;9.754;2024-03-06T14:52:26;7.10;99.90
22966;DHT22;11649;48.090;9.754;2024-03-06T14:54:53;7.10;99.90
22966;DHT22;11649;48.090;9.754;2024-03-06T14:57:45;7.00;99.90
22966;DHT22;11649;48.090;9.754;2024-03-06T15:00:12;7.00;99.90
22966;DHT22;11649;48.090;9.754;2024-03-06T15:02:40;7.10;99.90
22966;DHT22;11649;48.090;9.754;2024-03-06T15:05:07;7.10;99.90
22966;DHT22;11649;48.090;9.754;2024-03-06T15:07:34;7.00;99.90
22966;DHT22;11649;48.090;9.754;2024-03-06T15:10:00;7.00;99.90
22966;DHT22;11649;48.090;9.754;2024-03-06T15:12:27;7.00;99.90
22966;DHT22;11649;48.090;9.754;2024-03-06T15:14:54;7.10;99.90
22966;DHT22;11649;48.090;9.754;2024-03-06T15:17:24;7.00;99.90
22966;DHT22;11649;48.090;9.754;2024-03-06T15:19:54;6.90;99.90
22966;DHT22;11649;48.090;9.754;2024-03-06T15:22:26;7.00;99.90
22966;DHT22;11649;48.090;9.754;2024-03-06T15:24:53;7.00;99.90
22966;DHT22;11649;48.090;9.754;2024-03-06T15:27:21;6.90;99.90
22966;DHT22;11649;48.090;9.754;2024-03-06T15:29:48;7.00;99.90
22966;DHT22;11649;48.090;9.754;2024-03-06T15:32:14;7.00;99.90
22966;DHT22;11649;48.090;9.754;2024-03-06T15:34:41;7.00;99.90
22966;DHT22;11649;48.090;9.754;2024-03-06T15:37:08;7.10;99.90
22966;DHT22;11649;48.090;9.754;2024-03-06T15:39:48;7.10;99.90
22966;DHT22;11649;48.090;9.754;2024-03-06T15:42:15;7.00;99.90
22966;DHT22;11649;48.090;9.754;2024-03-06T15:44:42;6.90;99.90
22966;DHT22;11649;48.090;9.754;2024-03-06T15:47:09;7.00;99.90
22966;DHT22;11649;48.090;9.754;2024-03-06T15:49:36;7.10;99.90
22966;DHT22;11649;48.090;9.754;2024-03-06T15:52:04;7.20;99.90
22966;DHT22;11649;48.090;9.754;2024-03-06T15:54:30;7.20;99.90
22966;DHT22;11649;48.090;9.754;2024-03-06T15:56:57;7.00;99.90
22966;DHT22;11649;48.090;9.754;2024-03-06T15:59:24;7.30;99.90
22966;DHT22;11649;48.090;9.754;2024-03-06T16:01:52;7.30;99.90
22966;DHT22;11649;48.090;9.754;2024-03-06T16:04:19;7.20;99.90
22966;DHT22;11649;48.090;9.754;2024-03-06T16:06:46;7.30;99.90